sensor_id;sensor_type;location;lat;lon;timestamp;P1;durP1;ratioP1;P2;durP2;ratioP2
80987;SDS011;70452;39.386;-3.210;2023-07-31T00:02:08;7.57;;;1.15;;
80987;SDS011;70452;39.386;-3.210;2023-07-31T00:04:43;5.13;;;1.30;;
80987;SDS011;70452;39.386;-3.210;2023-07-31T00:07:17;3.90;;;0.88;;
80987;SDS011;70452;39.386;-3.210;2023-07-31T00:09:49;6.32;;;1.27;;
80987;SDS011;70452;39.386;-3.210;2023-07-31T00:12:26;3.53;;;1.13;;
80987;SDS011;70452;39.386;-3.210;2023-07-31T00:15:09;5.15;;;0.98;;
80987;SDS011;70452;39.386;-3.210;2023-07-31T00:17:55;5.80;;;0.88;;
80987;SDS011;70452;39.386;-3.210;2023-07-31T00:20:54;4.88;;;1.05;;
80987;SDS011;70452;39.386;-3.210;2023-07-31T00:23:41;6.78;;;1.05;;
80987;SDS011;70452;39.386;-3.210;2023-07-31T00:29:15;3.25;;;0.80;;
80987;SDS011;70452;39.386;-3.210;2023-07-31T00:31:59;8.82;;;1.10;;
80987;SDS011;70452;39.386;-3.210;2023-07-31T00:34:48;4.82;;;1.00;;
80987;SDS011;70452;39.386;-3.210;2023-07-31T00:37:37;5.63;;;0.88;;
80987;SDS011;70452;39.386;-3.210;2023-07-31T00:40:17;7.72;;;0.90;;
80987;SDS011;70452;39.386;-3.210;2023-07-31T00:43:04;3.95;;;0.75;;
80987;SDS011;70452;39.386;-3.210;2023-07-31T00:45:53;5.47;;;0.70;;
80987;SDS011;70452;39.386;-3.210;2023-07-31T00:48:25;5.43;;;0.75;;
80987;SDS011;70452;39.386;-3.210;2023-07-31T00:51:03;4.45;;;0.77;;
80987;SDS011;70452;39.386;-3.210;2023-07-31T00:53:39;4.07;;;0.73;;
80987;SDS011;70452;39.386;-3.210;2023-07-31T00:56:49;6.35;;;0.60;;
80987;SDS011;70452;39.386;-3.210;2023-07-31T00:59:19;6.25;;;0.98;;
80987;SDS011;70452;39.386;-3.210;2023-07-31T01:02:02;4.65;;;0.60;;
80987;SDS011;70452;39.386;-3.210;2023-07-31T01:04:38;7.25;;;0.60;;
80987;SDS011;70452;39.386;-3.210;2023-07-31T01:10:22;6.60;;;0.45;;
80987;SDS011;70452;39.386;-3.210;2023-07-31T01:12:54;4.57;;;0.43;;
80987;SDS011;70452;39.386;-3.210;2023-07-31T01:15:31;5.22;;;0.45;;
80987;SDS011;70452;39.386;-3.210;2023-07-31T01:18:12;4.35;;;0.30;;
80987;SDS011;70452;39.386;-3.210;2023-07-31T01:20:54;4.15;;;0.40;;
80987;SDS011;70452;39.386;-3.210;2023-07-31T01:26:44;4.22;;;0.60;;
80987;SDS011;70452;39.386;-3.210;2023-07-31T01:29:59;4.47;;;0.45;;
80987;SDS011;70452;39.386;-3.210;2023-07-31T01:32:40;3.85;;;0.60;;
80987;SDS011;70452;39.386;-3.210;2023-07-31T01:35:24;4.20;;;0.52;;
80987;SDS011;70452;39.386;-3.210;2023-07-31T01:38:25;4.00;;;0.50;;
80987;SDS011;70452;39.386;-3.210;2023-07-31T01:49:46;4.63;;;0.40;;
80987;SDS011;70452;39.386;-3.210;2023-07-31T01:52:28;5.03;;;0.73;;
80987;SDS011;70452;39.386;-3.210;2023-07-31T01:55:03;5.07;;;0.70;;
80987;SDS011;70452;39.386;-3.210;2023-07-31T01:58:03;3.50;;;0.60;;
80987;SDS011;70452;39.386;-3.210;2023-07-31T02:00:42;4.70;;;0.40;;
80987;SDS011;70452;39.386;-3.210;2023-07-31T02:03:22;3.08;;;0.73;;
80987;SDS011;70452;39.386;-3.210;2023-07-31T02:06:02;3.03;;;0.30;;
80987;SDS011;70452;39.386;-3.210;2023-07-31T02:08:50;7.18;;;0.40;;
80987;SDS011;70452;39.386;-3.210;2023-07-31T02:11:22;2.40;;;0.38;;
80987;SDS011;70452;39.386;-3.210;2023-07-31T02:13:57;6.38;;;0.60;;
80987;SDS011;70452;39.386;-3.210;2023-07-31T02:16:33;3.85;;;0.85;;
80987;SDS011;70452;39.386;-3.210;2023-07-31T02:19:16;3.03;;;0.50;;
80987;SDS011;70452;39.386;-3.210;2023-07-31T02:21:54;5.10;;;0.52;;
80987;SDS011;70452;39.386;-3.210;2023-07-31T02:27:16;2.72;;;0.40;;
80987;SDS011;70452;39.386;-3.210;2023-07-31T02:29:52;3.80;;;0.38;;
80987;SDS011;70452;39.386;-3.210;2023-07-31T02:32:33;3.17;;;0.35;;
80987;SDS011;70452;39.386;-3.210;2023-07-31T02:35:07;2.58;;;0.32;;
80987;SDS011;70452;39.386;-3.210;2023-07-31T02:37:52;4.75;;;0.40;;
80987;SDS011;70452;39.386;-3.210;2023-07-31T02:40:25;3.15;;;0.60;;
80987;SDS011;70452;39.386;-3.210;2023-07-31T02:42:59;3.92;;;0.50;;
80987;SDS011;70452;39.386;-3.210;2023-07-31T02:45:49;4.38;;;0.40;;
80987;SDS011;70452;39.386;-3.210;2023-07-31T02:48:25;2.67;;;0.30;;
80987;SDS011;70452;39.386;-3.210;2023-07-31T02:50:57;2.70;;;0.30;;
80987;SDS011;70452;39.386;-3.210;2023-07-31T02:53:44;4.15;;;0.52;;
80987;SDS011;70452;39.386;-3.210;2023-07-31T02:56:16;2.85;;;0.40;;
80987;SDS011;70452;39.386;-3.210;2023-07-31T02:59:01;6.25;;;0.52;;
80987;SDS011;70452;39.386;-3.210;2023-07-31T03:01:50;3.15;;;0.43;;
80987;SDS011;70452;39.386;-3.210;2023-07-31T03:04:38;4.30;;;0.60;;
80987;SDS011;70452;39.386;-3.210;2023-07-31T03:07:11;5.15;;;0.55;;
80987;SDS011;70452;39.386;-3.210;2023-07-31T03:09:47;3.85;;;0.50;;
80987;SDS011;70452;39.386;-3.210;2023-07-31T03:12:18;4.88;;;0.50;;
80987;SDS011;70452;39.386;-3.210;2023-07-31T03:14:50;5.03;;;0.65;;
80987;SDS011;70452;39.386;-3.210;2023-07-31T03:17:25;5.38;;;0.73;;
80987;SDS011;70452;39.386;-3.210;2023-07-31T03:20:10;4.65;;;1.30;;
80987;SDS011;70452;39.386;-3.210;2023-07-31T03:23:06;5.93;;;0.50;;
80987;SDS011;70452;39.386;-3.210;2023-07-31T03:25:39;5.45;;;0.90;;
80987;SDS011;70452;39.386;-3.210;2023-07-31T03:28:28;3.63;;;0.80;;
80987;SDS011;70452;39.386;-3.210;2023-07-31T03:31:06;7.78;;;1.40;;
80987;SDS011;70452;39.386;-3.210;2023-07-31T03:33:45;3.95;;;0.90;;
80987;SDS011;70452;39.386;-3.210;2023-07-31T03:36:27;9.15;;;1.25;;
80987;SDS011;70452;39.386;-3.210;2023-07-31T03:39:01;6.57;;;1.10;;
80987;SDS011;70452;39.386;-3.210;2023-07-31T03:41:38;4.97;;;0.93;;
80987;SDS011;70452;39.386;-3.210;2023-07-31T03:50:31;4.63;;;0.80;;
80987;SDS011;70452;39.386;-3.210;2023-07-31T03:53:12;5.82;;;0.88;;
80987;SDS011;70452;39.386;-3.210;2023-07-31T03:56:02;5.32;;;0.68;;
80987;SDS011;70452;39.386;-3.210;2023-07-31T03:58:51;5.25;;;0.80;;
80987;SDS011;70452;39.386;-3.210;2023-07-31T04:01:44;6.78;;;1.02;;
80987;SDS011;70452;39.386;-3.210;2023-07-31T04:04:26;5.07;;;1.00;;
80987;SDS011;70452;39.386;-3.210;2023-07-31T04:06:57;5.63;;;1.20;;
80987;SDS011;70452;39.386;-3.210;2023-07-31T04:09:37;6.75;;;1.23;;
80987;SDS011;70452;39.386;-3.210;2023-07-31T04:12:20;7.82;;;1.80;;
80987;SDS011;70452;39.386;-3.210;2023-07-31T04:15:32;4.57;;;0.80;;
80987;SDS011;70452;39.386;-3.210;2023-07-31T04:18:23;6.22;;;1.10;;
80987;SDS011;70452;39.386;-3.210;2023-07-31T04:21:01;4.82;;;0.70;;
80987;SDS011;70452;39.386;-3.210;2023-07-31T04:23:46;7.10;;;1.10;;
80987;SDS011;70452;39.386;-3.210;2023-07-31T04:26:24;8.88;;;1.05;;
80987;SDS011;70452;39.386;-3.210;2023-07-31T04:28:59;6.50;;;0.90;;
80987;SDS011;70452;39.386;-3.210;2023-07-31T04:31:34;6.10;;;0.68;;
80987;SDS011;70452;39.386;-3.210;2023-07-31T04:34:21;5.20;;;0.93;;
80987;SDS011;70452;39.386;-3.210;2023-07-31T04:37:03;6.05;;;0.95;;
80987;SDS011;70452;39.386;-3.210;2023-07-31T04:42:38;6.32;;;1.13;;
80987;SDS011;70452;39.386;-3.210;2023-07-31T04:45:16;6.82;;;0.85;;
80987;SDS011;70452;39.386;-3.210;2023-07-31T04:47:57;4.90;;;0.98;;
80987;SDS011;70452;39.386;-3.210;2023-07-31T04:50:28;6.65;;;1.42;;
80987;SDS011;70452;39.386;-3.210;2023-07-31T04:53:09;7.50;;;1.15;;
80987;SDS011;70452;39.386;-3.210;2023-07-31T04:55:54;9.02;;;1.20;;
80987;SDS011;70452;39.386;-3.210;2023-07-31T04:58:25;16.85;;;1.42;;
80987;SDS011;70452;39.386;-3.210;2023-07-31T05:01:03;7.40;;;0.90;;
80987;SDS011;70452;39.386;-3.210;2023-07-31T05:03:37;9.50;;;1.23;;
80987;SDS011;70452;39.386;-3.210;2023-07-31T05:06:14;6.95;;;1.23;;
80987;SDS011;70452;39.386;-3.210;2023-07-31T05:08:50;5.60;;;1.00;;
80987;SDS011;70452;39.386;-3.210;2023-07-31T05:11:27;10.10;;;1.15;;
80987;SDS011;70452;39.386;-3.210;2023-07-31T05:13:53;5.65;;;0.85;;
80987;SDS011;70452;39.386;-3.210;2023-07-31T05:19:16;5.00;;;0.98;;
80987;SDS011;70452;39.386;-3.210;2023-07-31T05:21:53;6.88;;;1.08;;
80987;SDS011;70452;39.386;-3.210;2023-07-31T05:24:26;5.50;;;1.33;;
80987;SDS011;70452;39.386;-3.210;2023-07-31T05:30:13;9.30;;;1.02;;
80987;SDS011;70452;39.386;-3.210;2023-07-31T05:32:52;4.93;;;1.00;;
80987;SDS011;70452;39.386;-3.210;2023-07-31T05:35:33;7.07;;;1.52;;
80987;SDS011;70452;39.386;-3.210;2023-07-31T05:38:10;7.45;;;0.90;;
80987;SDS011;70452;39.386;-3.210;2023-07-31T05:40:42;6.88;;;1.25;;
80987;SDS011;70452;39.386;-3.210;2023-07-31T05:43:32;6.10;;;1.15;;
80987;SDS011;70452;39.386;-3.210;2023-07-31T05:46:11;8.32;;;0.93;;
80987;SDS011;70452;39.386;-3.210;2023-07-31T05:48:52;5.10;;;1.23;;
80987;SDS011;70452;39.386;-3.210;2023-07-31T05:51:28;6.15;;;1.10;;
80987;SDS011;70452;39.386;-3.210;2023-07-31T05:54:14;5.10;;;0.95;;
80987;SDS011;70452;39.386;-3.210;2023-07-31T05:56:49;7.03;;;1.55;;
80987;SDS011;70452;39.386;-3.210;2023-07-31T05:59:25;11.52;;;2.03;;
80987;SDS011;70452;39.386;-3.210;2023-07-31T06:02:02;7.00;;;1.58;;
80987;SDS011;70452;39.386;-3.210;2023-07-31T06:04:35;7.93;;;1.45;;
80987;SDS011;70452;39.386;-3.210;2023-07-31T06:07:11;9.90;;;1.92;;
80987;SDS011;70452;39.386;-3.210;2023-07-31T06:10:09;10.43;;;1.95;;
80987;SDS011;70452;39.386;-3.210;2023-07-31T06:12:54;6.30;;;1.42;;
80987;SDS011;70452;39.386;-3.210;2023-07-31T06:15:35;11.77;;;1.65;;
80987;SDS011;70452;39.386;-3.210;2023-07-31T06:18:10;11.43;;;2.35;;
80987;SDS011;70452;39.386;-3.210;2023-07-31T06:20:50;8.23;;;1.40;;
80987;SDS011;70452;39.386;-3.210;2023-07-31T06:23:26;7.90;;;1.35;;
80987;SDS011;70452;39.386;-3.210;2023-07-31T06:25:59;19.63;;;2.17;;
80987;SDS011;70452;39.386;-3.210;2023-07-31T06:28:36;16.58;;;2.22;;
80987;SDS011;70452;39.386;-3.210;2023-07-31T06:31:08;9.00;;;2.03;;
80987;SDS011;70452;39.386;-3.210;2023-07-31T06:34:01;8.00;;;2.17;;
80987;SDS011;70452;39.386;-3.210;2023-07-31T06:36:52;8.20;;;1.30;;
80987;SDS011;70452;39.386;-3.210;2023-07-31T06:39:34;12.40;;;2.42;;
80987;SDS011;70452;39.386;-3.210;2023-07-31T06:42:14;8.98;;;2.10;;
80987;SDS011;70452;39.386;-3.210;2023-07-31T06:44:52;9.48;;;2.10;;
80987;SDS011;70452;39.386;-3.210;2023-07-31T06:47:33;19.17;;;2.83;;
80987;SDS011;70452;39.386;-3.210;2023-07-31T06:50:30;10.75;;;1.67;;
80987;SDS011;70452;39.386;-3.210;2023-07-31T06:53:04;14.07;;;1.63;;
80987;SDS011;70452;39.386;-3.210;2023-07-31T06:55:34;14.60;;;2.30;;
80987;SDS011;70452;39.386;-3.210;2023-07-31T06:58:11;9.38;;;2.55;;
80987;SDS011;70452;39.386;-3.210;2023-07-31T07:00:41;7.95;;;1.98;;
80987;SDS011;70452;39.386;-3.210;2023-07-31T07:03:22;7.45;;;1.98;;
80987;SDS011;70452;39.386;-3.210;2023-07-31T07:05:59;8.57;;;2.38;;
80987;SDS011;70452;39.386;-3.210;2023-07-31T07:08:45;7.72;;;2.00;;
80987;SDS011;70452;39.386;-3.210;2023-07-31T07:14:02;19.63;;;2.05;;
80987;SDS011;70452;39.386;-3.210;2023-07-31T07:16:37;8.90;;;1.55;;
80987;SDS011;70452;39.386;-3.210;2023-07-31T07:19:15;11.32;;;3.15;;
80987;SDS011;70452;39.386;-3.210;2023-07-31T07:21:58;10.63;;;3.40;;
80987;SDS011;70452;39.386;-3.210;2023-07-31T07:24:35;9.73;;;1.90;;
80987;SDS011;70452;39.386;-3.210;2023-07-31T07:27:25;11.93;;;1.92;;
80987;SDS011;70452;39.386;-3.210;2023-07-31T07:30:12;11.95;;;2.20;;
80987;SDS011;70452;39.386;-3.210;2023-07-31T07:33:10;10.18;;;2.45;;
80987;SDS011;70452;39.386;-3.210;2023-07-31T07:35:46;12.13;;;1.63;;
80987;SDS011;70452;39.386;-3.210;2023-07-31T07:38:19;17.98;;;2.97;;
80987;SDS011;70452;39.386;-3.210;2023-07-31T07:40:50;14.35;;;2.95;;
80987;SDS011;70452;39.386;-3.210;2023-07-31T07:43:34;11.90;;;2.33;;
80987;SDS011;70452;39.386;-3.210;2023-07-31T07:46:05;11.30;;;2.38;;
80987;SDS011;70452;39.386;-3.210;2023-07-31T07:48:37;9.45;;;3.42;;
80987;SDS011;70452;39.386;-3.210;2023-07-31T07:51:17;10.43;;;3.65;;
80987;SDS011;70452;39.386;-3.210;2023-07-31T07:54:03;10.90;;;3.33;;
80987;SDS011;70452;39.386;-3.210;2023-07-31T07:56:45;9.18;;;3.50;;
80987;SDS011;70452;39.386;-3.210;2023-07-31T07:59:40;11.50;;;2.40;;
80987;SDS011;70452;39.386;-3.210;2023-07-31T08:02:17;15.38;;;3.25;;
80987;SDS011;70452;39.386;-3.210;2023-07-31T08:05:00;11.73;;;3.97;;
80987;SDS011;70452;39.386;-3.210;2023-07-31T08:07:32;12.27;;;2.42;;
80987;SDS011;70452;39.386;-3.210;2023-07-31T08:10:14;10.05;;;3.08;;
80987;SDS011;70452;39.386;-3.210;2023-07-31T08:13:14;13.32;;;2.78;;
80987;SDS011;70452;39.386;-3.210;2023-07-31T08:15:48;13.32;;;3.40;;
80987;SDS011;70452;39.386;-3.210;2023-07-31T08:18:35;15.45;;;2.97;;
80987;SDS011;70452;39.386;-3.210;2023-07-31T08:21:13;13.40;;;2.90;;
80987;SDS011;70452;39.386;-3.210;2023-07-31T08:23:47;19.58;;;3.58;;
80987;SDS011;70452;39.386;-3.210;2023-07-31T08:26:32;17.17;;;2.92;;
80987;SDS011;70452;39.386;-3.210;2023-07-31T08:29:09;12.20;;;2.10;;
80987;SDS011;70452;39.386;-3.210;2023-07-31T08:31:41;15.25;;;3.67;;
80987;SDS011;70452;39.386;-3.210;2023-07-31T08:34:21;18.45;;;3.30;;
80987;SDS011;70452;39.386;-3.210;2023-07-31T08:36:58;16.67;;;2.90;;
80987;SDS011;70452;39.386;-3.210;2023-07-31T08:39:39;11.95;;;2.65;;
80987;SDS011;70452;39.386;-3.210;2023-07-31T08:42:16;14.68;;;2.97;;
80987;SDS011;70452;39.386;-3.210;2023-07-31T08:44:54;12.02;;;2.78;;
80987;SDS011;70452;39.386;-3.210;2023-07-31T08:47:31;15.05;;;3.38;;
80987;SDS011;70452;39.386;-3.210;2023-07-31T08:50:05;14.63;;;3.60;;
80987;SDS011;70452;39.386;-3.210;2023-07-31T08:52:53;8.90;;;2.72;;
80987;SDS011;70452;39.386;-3.210;2023-07-31T08:55:29;8.52;;;2.67;;
80987;SDS011;70452;39.386;-3.210;2023-07-31T08:58:10;13.18;;;2.88;;
80987;SDS011;70452;39.386;-3.210;2023-07-31T09:00:48;10.55;;;2.95;;
80987;SDS011;70452;39.386;-3.210;2023-07-31T09:03:45;10.80;;;2.55;;
80987;SDS011;70452;39.386;-3.210;2023-07-31T09:06:21;9.52;;;2.35;;
80987;SDS011;70452;39.386;-3.210;2023-07-31T09:09:00;10.50;;;2.58;;
80987;SDS011;70452;39.386;-3.210;2023-07-31T09:11:37;10.13;;;2.40;;
80987;SDS011;70452;39.386;-3.210;2023-07-31T09:14:25;6.57;;;3.70;;
80987;SDS011;70452;39.386;-3.210;2023-07-31T09:17:00;10.75;;;4.32;;
80987;SDS011;70452;39.386;-3.210;2023-07-31T09:19:33;7.47;;;3.47;;
80987;SDS011;70452;39.386;-3.210;2023-07-31T09:22:09;5.80;;;2.95;;
80987;SDS011;70452;39.386;-3.210;2023-07-31T09:24:42;7.30;;;2.65;;
80987;SDS011;70452;39.386;-3.210;2023-07-31T09:27:16;9.27;;;3.25;;
80987;SDS011;70452;39.386;-3.210;2023-07-31T09:30:13;9.82;;;2.42;;
80987;SDS011;70452;39.386;-3.210;2023-07-31T09:32:51;9.23;;;3.45;;
80987;SDS011;70452;39.386;-3.210;2023-07-31T09:35:34;7.13;;;5.10;;
80987;SDS011;70452;39.386;-3.210;2023-07-31T09:38:10;7.35;;;2.80;;
80987;SDS011;70452;39.386;-3.210;2023-07-31T09:40:53;7.97;;;3.08;;
80987;SDS011;70452;39.386;-3.210;2023-07-31T09:43:21;8.50;;;3.35;;
80987;SDS011;70452;39.386;-3.210;2023-07-31T09:46:01;5.90;;;3.10;;
80987;SDS011;70452;39.386;-3.210;2023-07-31T09:48:41;6.57;;;2.55;;
80987;SDS011;70452;39.386;-3.210;2023-07-31T09:51:13;8.00;;;2.92;;
80987;SDS011;70452;39.386;-3.210;2023-07-31T09:53:50;7.30;;;2.22;;
80987;SDS011;70452;39.386;-3.210;2023-07-31T09:56:26;12.63;;;3.33;;
80987;SDS011;70452;39.386;-3.210;2023-07-31T09:59:02;9.07;;;2.22;;
80987;SDS011;70452;39.386;-3.210;2023-07-31T10:02:00;12.80;;;2.90;;
80987;SDS011;70452;39.386;-3.210;2023-07-31T10:04:34;11.23;;;2.63;;
80987;SDS011;70452;39.386;-3.210;2023-07-31T10:07:06;10.65;;;2.80;;
80987;SDS011;70452;39.386;-3.210;2023-07-31T10:09:41;6.38;;;1.75;;
80987;SDS011;70452;39.386;-3.210;2023-07-31T10:12:22;7.72;;;2.15;;
80987;SDS011;70452;39.386;-3.210;2023-07-31T10:14:55;6.28;;;1.85;;
80987;SDS011;70452;39.386;-3.210;2023-07-31T10:17:37;8.18;;;1.92;;
80987;SDS011;70452;39.386;-3.210;2023-07-31T10:20:22;6.35;;;2.40;;
80987;SDS011;70452;39.386;-3.210;2023-07-31T10:22:56;11.27;;;2.95;;
80987;SDS011;70452;39.386;-3.210;2023-07-31T10:25:38;8.77;;;2.22;;
80987;SDS011;70452;39.386;-3.210;2023-07-31T10:28:08;8.43;;;3.50;;
80987;SDS011;70452;39.386;-3.210;2023-07-31T10:33:43;6.80;;;2.95;;
80987;SDS011;70452;39.386;-3.210;2023-07-31T10:36:19;5.82;;;2.80;;
80987;SDS011;70452;39.386;-3.210;2023-07-31T10:39:03;6.75;;;3.90;;
80987;SDS011;70452;39.386;-3.210;2023-07-31T10:41:55;8.00;;;3.13;;
80987;SDS011;70452;39.386;-3.210;2023-07-31T10:44:26;5.07;;;2.33;;
80987;SDS011;70452;39.386;-3.210;2023-07-31T10:47:16;8.93;;;3.60;;
80987;SDS011;70452;39.386;-3.210;2023-07-31T10:49:49;5.68;;;2.75;;
80987;SDS011;70452;39.386;-3.210;2023-07-31T10:52:43;10.90;;;3.08;;
80987;SDS011;70452;39.386;-3.210;2023-07-31T10:55:32;12.25;;;4.53;;
80987;SDS011;70452;39.386;-3.210;2023-07-31T10:58:11;11.52;;;3.65;;
80987;SDS011;70452;39.386;-3.210;2023-07-31T11:00:52;3.95;;;2.30;;
80987;SDS011;70452;39.386;-3.210;2023-07-31T11:06:10;6.38;;;2.85;;
80987;SDS011;70452;39.386;-3.210;2023-07-31T11:08:49;5.43;;;1.80;;
80987;SDS011;70452;39.386;-3.210;2023-07-31T11:11:30;7.20;;;2.80;;
80987;SDS011;70452;39.386;-3.210;2023-07-31T11:14:10;5.38;;;2.78;;
80987;SDS011;70452;39.386;-3.210;2023-07-31T11:16:49;4.72;;;2.03;;
80987;SDS011;70452;39.386;-3.210;2023-07-31T11:19:42;9.05;;;2.70;;
80987;SDS011;70452;39.386;-3.210;2023-07-31T11:22:32;3.90;;;1.73;;
80987;SDS011;70452;39.386;-3.210;2023-07-31T11:25:10;4.63;;;2.17;;
80987;SDS011;70452;39.386;-3.210;2023-07-31T11:27:51;4.43;;;3.88;;
80987;SDS011;70452;39.386;-3.210;2023-07-31T11:30:21;4.40;;;2.30;;
80987;SDS011;70452;39.386;-3.210;2023-07-31T11:33:01;6.32;;;1.42;;
80987;SDS011;70452;39.386;-3.210;2023-07-31T11:35:46;6.28;;;2.13;;
80987;SDS011;70452;39.386;-3.210;2023-07-31T11:38:27;7.13;;;2.55;;
80987;SDS011;70452;39.386;-3.210;2023-07-31T11:41:00;3.67;;;1.25;;
80987;SDS011;70452;39.386;-3.210;2023-07-31T11:43:35;5.25;;;1.65;;
80987;SDS011;70452;39.386;-3.210;2023-07-31T11:46:10;6.05;;;2.67;;
80987;SDS011;70452;39.386;-3.210;2023-07-31T11:49:04;4.35;;;2.67;;
80987;SDS011;70452;39.386;-3.210;2023-07-31T11:51:56;6.63;;;2.88;;
80987;SDS011;70452;39.386;-3.210;2023-07-31T11:54:30;5.57;;;2.70;;
80987;SDS011;70452;39.386;-3.210;2023-07-31T11:57:02;5.72;;;2.38;;
80987;SDS011;70452;39.386;-3.210;2023-07-31T11:59:44;5.63;;;2.28;;
80987;SDS011;70452;39.386;-3.210;2023-07-31T12:02:29;7.70;;;2.40;;
80987;SDS011;70452;39.386;-3.210;2023-07-31T12:04:57;5.68;;;2.05;;
80987;SDS011;70452;39.386;-3.210;2023-07-31T12:07:50;6.78;;;1.90;;
80987;SDS011;70452;39.386;-3.210;2023-07-31T12:10:28;7.32;;;2.70;;
80987;SDS011;70452;39.386;-3.210;2023-07-31T12:13:03;5.97;;;2.50;;
80987;SDS011;70452;39.386;-3.210;2023-07-31T12:15:45;5.43;;;2.50;;
80987;SDS011;70452;39.386;-3.210;2023-07-31T12:18:26;3.17;;;1.25;;
80987;SDS011;70452;39.386;-3.210;2023-07-31T12:21:08;4.13;;;1.77;;
80987;SDS011;70452;39.386;-3.210;2023-07-31T12:23:43;3.83;;;1.80;;
80987;SDS011;70452;39.386;-3.210;2023-07-31T12:26:24;8.02;;;2.67;;
80987;SDS011;70452;39.386;-3.210;2023-07-31T12:29:07;5.35;;;1.80;;
80987;SDS011;70452;39.386;-3.210;2023-07-31T12:31:46;6.00;;;2.65;;
80987;SDS011;70452;39.386;-3.210;2023-07-31T12:34:23;4.60;;;2.35;;
80987;SDS011;70452;39.386;-3.210;2023-07-31T12:36:55;6.57;;;2.45;;
80987;SDS011;70452;39.386;-3.210;2023-07-31T12:39:30;6.53;;;1.70;;
80987;SDS011;70452;39.386;-3.210;2023-07-31T12:42:06;7.78;;;1.90;;
80987;SDS011;70452;39.386;-3.210;2023-07-31T12:44:46;5.97;;;2.10;;
80987;SDS011;70452;39.386;-3.210;2023-07-31T12:47:21;5.65;;;1.55;;
80987;SDS011;70452;39.386;-3.210;2023-07-31T12:49:58;7.03;;;3.15;;
80987;SDS011;70452;39.386;-3.210;2023-07-31T12:52:39;4.50;;;1.67;;
80987;SDS011;70452;39.386;-3.210;2023-07-31T12:55:14;5.22;;;1.65;;
80987;SDS011;70452;39.386;-3.210;2023-07-31T12:57:48;6.00;;;2.40;;
80987;SDS011;70452;39.386;-3.210;2023-07-31T13:00:28;4.88;;;2.00;;
80987;SDS011;70452;39.386;-3.210;2023-07-31T13:03:10;6.13;;;2.03;;
80987;SDS011;70452;39.386;-3.210;2023-07-31T13:05:42;3.65;;;1.55;;
80987;SDS011;70452;39.386;-3.210;2023-07-31T13:08:20;3.72;;;2.10;;
80987;SDS011;70452;39.386;-3.210;2023-07-31T13:10:50;3.75;;;1.90;;
80987;SDS011;70452;39.386;-3.210;2023-07-31T13:13:27;3.13;;;1.60;;
80987;SDS011;70452;39.386;-3.210;2023-07-31T13:16:07;5.65;;;0.95;;
80987;SDS011;70452;39.386;-3.210;2023-07-31T13:18:44;3.13;;;1.05;;
80987;SDS011;70452;39.386;-3.210;2023-07-31T13:21:13;5.80;;;1.92;;
80987;SDS011;70452;39.386;-3.210;2023-07-31T13:24:10;3.63;;;1.08;;
80987;SDS011;70452;39.386;-3.210;2023-07-31T13:26:49;4.50;;;2.65;;
80987;SDS011;70452;39.386;-3.210;2023-07-31T13:29:23;3.58;;;1.52;;
80987;SDS011;70452;39.386;-3.210;2023-07-31T13:31:55;12.00;;;3.67;;
80987;SDS011;70452;39.386;-3.210;2023-07-31T13:34:34;4.88;;;1.75;;
80987;SDS011;70452;39.386;-3.210;2023-07-31T13:37:04;3.40;;;1.33;;
80987;SDS011;70452;39.386;-3.210;2023-07-31T13:39:33;4.30;;;1.80;;
80987;SDS011;70452;39.386;-3.210;2023-07-31T13:42:13;3.75;;;1.85;;
80987;SDS011;70452;39.386;-3.210;2023-07-31T13:44:53;4.38;;;1.50;;
80987;SDS011;70452;39.386;-3.210;2023-07-31T13:47:26;5.50;;;1.88;;
80987;SDS011;70452;39.386;-3.210;2023-07-31T13:49:59;3.80;;;1.48;;
80987;SDS011;70452;39.386;-3.210;2023-07-31T13:52:34;4.30;;;0.85;;
80987;SDS011;70452;39.386;-3.210;2023-07-31T13:55:05;5.57;;;1.40;;
80987;SDS011;70452;39.386;-3.210;2023-07-31T13:57:45;4.28;;;1.90;;
80987;SDS011;70452;39.386;-3.210;2023-07-31T14:00:20;5.40;;;1.73;;
80987;SDS011;70452;39.386;-3.210;2023-07-31T14:03:02;3.72;;;1.50;;
80987;SDS011;70452;39.386;-3.210;2023-07-31T14:05:41;4.95;;;2.38;;
80987;SDS011;70452;39.386;-3.210;2023-07-31T14:08:16;4.32;;;1.75;;
80987;SDS011;70452;39.386;-3.210;2023-07-31T14:10:55;4.60;;;1.65;;
80987;SDS011;70452;39.386;-3.210;2023-07-31T14:13:35;5.07;;;2.28;;
80987;SDS011;70452;39.386;-3.210;2023-07-31T14:16:26;6.75;;;2.05;;
80987;SDS011;70452;39.386;-3.210;2023-07-31T14:19:01;7.05;;;1.40;;
80987;SDS011;70452;39.386;-3.210;2023-07-31T14:21:52;4.30;;;2.03;;
80987;SDS011;70452;39.386;-3.210;2023-07-31T14:24:27;4.95;;;1.90;;
80987;SDS011;70452;39.386;-3.210;2023-07-31T14:26:57;4.18;;;1.42;;
80987;SDS011;70452;39.386;-3.210;2023-07-31T14:29:34;4.28;;;1.65;;
80987;SDS011;70452;39.386;-3.210;2023-07-31T14:32:12;4.45;;;3.42;;
80987;SDS011;70452;39.386;-3.210;2023-07-31T14:34:48;4.07;;;1.42;;
80987;SDS011;70452;39.386;-3.210;2023-07-31T14:37:25;5.82;;;1.30;;
80987;SDS011;70452;39.386;-3.210;2023-07-31T14:40:17;4.85;;;1.73;;
80987;SDS011;70452;39.386;-3.210;2023-07-31T14:43:01;3.78;;;1.42;;
80987;SDS011;70452;39.386;-3.210;2023-07-31T14:45:48;3.80;;;1.95;;
80987;SDS011;70452;39.386;-3.210;2023-07-31T14:48:24;4.35;;;1.80;;
80987;SDS011;70452;39.386;-3.210;2023-07-31T14:51:07;4.65;;;2.38;;
80987;SDS011;70452;39.386;-3.210;2023-07-31T14:53:39;5.70;;;1.92;;
80987;SDS011;70452;39.386;-3.210;2023-07-31T14:56:28;4.43;;;2.72;;
80987;SDS011;70452;39.386;-3.210;2023-07-31T14:59:05;5.70;;;2.83;;
80987;SDS011;70452;39.386;-3.210;2023-07-31T15:01:45;4.93;;;1.83;;
80987;SDS011;70452;39.386;-3.210;2023-07-31T15:04:14;6.28;;;1.85;;
80987;SDS011;70452;39.386;-3.210;2023-07-31T15:06:51;6.25;;;1.70;;
80987;SDS011;70452;39.386;-3.210;2023-07-31T15:09:26;5.53;;;2.40;;
80987;SDS011;70452;39.386;-3.210;2023-07-31T15:11:59;6.07;;;1.88;;
80987;SDS011;70452;39.386;-3.210;2023-07-31T15:14:51;6.38;;;2.85;;
80987;SDS011;70452;39.386;-3.210;2023-07-31T15:17:20;4.95;;;2.00;;
80987;SDS011;70452;39.386;-3.210;2023-07-31T15:19:57;3.88;;;1.58;;
80987;SDS011;70452;39.386;-3.210;2023-07-31T15:22:27;6.65;;;2.72;;
80987;SDS011;70452;39.386;-3.210;2023-07-31T15:25:05;4.65;;;2.47;;
80987;SDS011;70452;39.386;-3.210;2023-07-31T15:30:15;9.65;;;2.05;;
80987;SDS011;70452;39.386;-3.210;2023-07-31T15:32:54;4.68;;;2.00;;
80987;SDS011;70452;39.386;-3.210;2023-07-31T15:35:26;5.00;;;2.30;;
80987;SDS011;70452;39.386;-3.210;2023-07-31T15:38:03;6.38;;;2.42;;
80987;SDS011;70452;39.386;-3.210;2023-07-31T15:40:41;5.28;;;2.15;;
80987;SDS011;70452;39.386;-3.210;2023-07-31T15:43:18;5.78;;;2.67;;
80987;SDS011;70452;39.386;-3.210;2023-07-31T15:45:50;10.45;;;4.05;;
80987;SDS011;70452;39.386;-3.210;2023-07-31T15:48:30;14.90;;;3.33;;
80987;SDS011;70452;39.386;-3.210;2023-07-31T15:51:07;4.53;;;2.97;;
80987;SDS011;70452;39.386;-3.210;2023-07-31T15:53:50;6.18;;;2.72;;
80987;SDS011;70452;39.386;-3.210;2023-07-31T15:56:19;6.18;;;2.90;;
80987;SDS011;70452;39.386;-3.210;2023-07-31T15:58:54;6.75;;;2.88;;
80987;SDS011;70452;39.386;-3.210;2023-07-31T16:01:31;5.40;;;2.85;;
80987;SDS011;70452;39.386;-3.210;2023-07-31T16:04:13;5.53;;;1.85;;
80987;SDS011;70452;39.386;-3.210;2023-07-31T16:06:56;7.70;;;2.63;;
80987;SDS011;70452;39.386;-3.210;2023-07-31T16:09:29;4.95;;;2.50;;
80987;SDS011;70452;39.386;-3.210;2023-07-31T16:12:09;5.15;;;2.78;;
80987;SDS011;70452;39.386;-3.210;2023-07-31T16:15:01;5.50;;;1.80;;
80987;SDS011;70452;39.386;-3.210;2023-07-31T16:20:26;4.82;;;1.92;;
80987;SDS011;70452;39.386;-3.210;2023-07-31T16:23:06;5.03;;;2.63;;
80987;SDS011;70452;39.386;-3.210;2023-07-31T16:25:42;5.35;;;2.33;;
80987;SDS011;70452;39.386;-3.210;2023-07-31T16:28:14;4.82;;;2.00;;
80987;SDS011;70452;39.386;-3.210;2023-07-31T16:30:52;5.05;;;1.48;;
80987;SDS011;70452;39.386;-3.210;2023-07-31T16:33:40;5.88;;;3.30;;
80987;SDS011;70452;39.386;-3.210;2023-07-31T16:39:09;4.93;;;2.75;;